Time;durP1;ratioP1;P1;durP2;ratioP2;P2;SDS_P1;SDS_P2;PMS_P1;PMS_P2;Temp;Humidity;BMP_temperature;BMP_pressure;BME280_temperature;BME280_humidity;BME280_pressure;Samples;Min_cycle;Max_cycle;Signal;HPM_P1;HPM_P2
2023/01/11 00:00:17;;;;;;;4.43;1.40;;;;;;;7.85;100.00;100092.47;5062224;28;20420;-69
2023/01/11 00:02:44;;;;;;;2.45;1.00;;;;;;;7.85;100.00;100095.16;5068589;28;20142;-68
2023/01/11 00:05:10;;;;;;;2.35;1.42;;;;;;;8.06;100.00;100097.50;5068229;28;20516;-68
2023/01/11 00:07:36;;;;;;;2.38;1.38;;;;;;;7.82;100.00;100090.47;5072119;28;20124;-68
2023/01/11 00:10:03;;;;;;;5.63;1.30;;;;;;;7.94;100.00;100094.94;5060492;28;20116;-68
2023/01/11 00:12:29;;;;;;;1.27;0.60;;;;;;;8.06;100.00;100105.53;5065880;28;20135;-68
2023/01/11 00:14:55;;;;;;;1.52;1.15;;;;;;;8.17;100.00;100091.22;5066131;28;20082;-69
2023/01/11 00:17:21;;;;;;;2.22;1.13;;;;;;;8.31;100.00;100101.50;5069591;28;20112;-68
2023/01/11 00:19:46;;;;;;;3.35;1.42;;;;;;;8.07;100.00;100078.38;5053789;28;20043;-69
2023/01/11 00:22:12;;;;;;;3.15;1.58;;;;;;;8.08;100.00;100087.19;5067339;28;20097;-68
2023/01/11 00:24:37;;;;;;;1.95;0.82;;;;;;;8.28;100.00;100067.34;5065375;28;20032;-68
2023/01/11 00:27:03;;;;;;;3.10;0.93;;;;;;;8.14;100.00;100080.44;5060961;28;20477;-68
2023/01/11 00:29:28;;;;;;;2.67;1.00;;;;;;;8.13;100.00;100068.94;5057753;28;20421;-68
2023/01/11 00:31:54;;;;;;;1.55;1.10;;;;;;;8.28;100.00;100058.53;5064653;28;20025;-68
2023/01/11 00:34:19;;;;;;;2.28;1.10;;;;;;;8.28;100.00;100053.16;5065889;28;20040;-68
2023/01/11 00:36:45;;;;;;;1.75;0.98;;;;;;;8.34;100.00;100065.94;5070404;28;20028;-68
2023/01/11 00:39:10;;;;;;;1.05;0.70;;;;;;;8.46;100.00;100057.72;5083056;28;20037;-68
2023/01/11 00:49:47;;;;;;;1.45;0.75;;;;;;;8.38;100.00;100039.94;5069097;28;20069;-68
2023/01/11 00:52:13;;;;;;;6.65;1.45;;;;;;;8.32;100.00;100033.31;5064835;28;20079;-68
2023/01/11 00:54:39;;;;;;;3.50;1.15;;;;;;;8.34;100.00;100025.69;5068825;28;20452;-69
2023/01/11 00:57:06;;;;;;;7.03;1.02;;;;;;;8.38;100.00;100017.72;5046913;28;20028;-69
2023/01/11 00:59:33;;;;;;;1.50;1.20;;;;;;;8.42;100.00;100013.19;5064637;28;20036;-68
2023/01/11 01:01:58;;;;;;;3.28;1.75;;;;;;;8.10;100.00;100020.59;5067252;28;20111;-68
2023/01/11 01:04:24;;;;;;;3.90;1.27;;;;;;;8.27;100.00;100017.50;5066511;28;20115;-69
2023/01/11 01:06:49;;;;;;;2.22;0.73;;;;;;;8.08;100.00;100006.75;5064070;28;20111;-68
2023/01/11 01:09:14;;;;;;;2.15;0.90;;;;;;;8.22;100.00;99996.31;5069722;28;20036;-68
2023/01/11 01:11:40;;;;;;;6.15;1.25;;;;;;;8.42;100.00;100000.53;5057590;28;20041;-68
2023/01/11 01:16:50;;;;;;;4.47;1.33;;;;;;;8.45;100.00;99993.69;5069336;28;20447;-68
2023/01/11 01:19:16;;;;;;;4.60;1.90;;;;;;;8.47;100.00;99989.53;5067103;28;20428;-68
2023/01/11 01:21:42;;;;;;;2.17;1.23;;;;;;;8.33;100.00;99991.16;5066115;28;20040;-69
2023/01/11 01:24:08;;;;;;;1.67;1.33;;;;;;;8.30;100.00;99989.22;5071305;28;20033;-68
2023/01/11 01:26:33;;;;;;;0.82;0.82;;;;;;;8.25;100.00;99984.91;5065873;28;20374;-69
2023/01/11 01:28:59;;;;;;;7.93;1.00;;;;;;;8.23;100.00;99973.72;5066929;28;20094;-68
2023/01/11 01:31:24;;;;;;;1.85;1.00;;;;;;;8.15;100.00;99970.13;5068729;28;20037;-68
2023/01/11 01:33:49;;;;;;;4.70;1.42;;;;;;;8.04;100.00;99977.22;5069727;28;20032;-68
2023/01/11 01:36:15;;;;;;;1.35;0.90;;;;;;;8.00;100.00;99980.94;5066108;28;20071;-68
2023/01/11 01:38:40;;;;;;;1.58;0.90;;;;;;;8.16;100.00;99973.59;5068860;28;20044;-68
2023/01/11 01:41:06;;;;;;;2.10;1.05;;;;;;;8.32;100.00;99977.00;5068142;28;20427;-68
2023/01/11 01:43:43;;;;;;;3.22;1.05;;;;;;;8.40;100.00;99970.59;5066049;28;20062;-68
2023/01/11 01:46:09;;;;;;;2.22;1.30;;;;;;;8.34;100.00;99955.97;5066266;28;20033;-68
2023/01/11 01:48:36;;;;;;;0.77;0.65;;;;;;;8.28;100.00;99967.31;5069149;28;20039;-68
2023/01/11 01:51:03;;;;;;;1.38;1.00;;;;;;;8.41;100.00;99947.25;5063873;28;20492;-68
2023/01/11 01:53:36;;;;;;;1.92;1.50;;;;;;;8.44;100.00;99957.28;5063026;28;20035;-68
2023/01/11 01:56:10;;;;;;;5.22;1.15;;;;;;;8.34;100.00;99952.50;5062366;28;20455;-68
2023/01/11 01:58:40;;;;;;;2.70;1.10;;;;;;;8.28;100.00;99952.03;5063876;28;20032;-69
2023/01/11 02:04:11;;;;;;;1.00;0.95;;;;;;;8.09;100.00;99943.97;5067717;28;20032;-68
2023/01/11 02:06:37;;;;;;;5.55;1.13;;;;;;;8.18;100.00;99931.13;4988326;28;20042;-68
2023/01/11 02:09:15;;;;;;;0.85;0.82;;;;;;;8.19;100.00;99936.13;4972582;28;20550;-69
2023/01/11 02:11:42;;;;;;;1.35;0.70;;;;;;;8.42;100.00;99941.50;4968191;28;20431;-69
2023/01/11 02:14:13;;;;;;;1.13;0.80;;;;;;;8.47;100.00;99927.81;4987373;28;20046;-67
2023/01/11 02:16:39;;;;;;;;;;;;;;;8.64;100.00;99930.00;4987834;28;20113;-68
2023/01/11 02:19:10;;;;;;;0.85;0.80;;;;;;;8.56;100.00;99914.94;4952062;28;20016;-69
2023/01/11 02:21:54;;;;;;;;;;;;;;;8.55;100.00;99913.41;4979062;28;20034;-68
2023/01/11 02:25:01;;;;;;;2.35;0.90;;;;;;;8.51;100.00;99919.81;4983450;28;19985;-68
2023/01/11 02:27:58;;;;;;;2.38;0.90;;;;;;;8.57;100.00;99905.75;4969261;28;20045;-68
2023/01/11 02:30:37;;;;;;;2.58;0.60;;;;;;;8.71;100.00;99908.66;4984753;28;20502;-67
2023/01/11 02:33:06;;;;;;;4.03;1.15;;;;;;;8.53;100.00;99896.09;4981952;28;20042;-68
2023/01/11 02:35:52;;;;;;;1.00;0.77;;;;;;;8.75;100.00;99888.00;4954480;28;20038;-69
2023/01/11 02:38:32;;;;;;;2.15;1.00;;;;;;;8.73;100.00;99889.53;4988221;28;20129;-69
2023/01/11 02:41:06;;;;;;;3.80;0.80;;;;;;;8.73;100.00;99882.22;4983641;28;20085;-68
2023/01/11 02:46:47;;;;;;;4.57;0.95;;;;;;;8.91;100.00;99880.56;5064392;28;20025;-68
2023/01/11 02:49:23;;;;;;;0.65;0.65;;;;;;;8.98;100.00;99877.22;5064403;28;20029;-67
2023/01/11 02:52:16;;;;;;;0.60;0.60;;;;;;;9.02;100.00;99881.50;5061666;28;20185;-68
2023/01/11 02:54:45;;;;;;;2.55;1.15;;;;;;;8.77;100.00;99876.91;5062984;28;20404;-68
2023/01/11 02:57:12;;;;;;;1.48;1.00;;;;;;;8.65;100.00;99869.81;5065830;28;20028;-68
2023/01/11 02:59:39;;;;;;;2.70;0.68;;;;;;;8.80;100.00;99876.97;5062910;28;20701;-68
2023/01/11 03:02:04;;;;;;;1.15;1.05;;;;;;;8.89;100.00;99874.00;5072990;28;20485;-68
2023/01/11 03:04:33;;;;;;;2.03;0.80;;;;;;;8.94;100.00;99873.72;5072372;28;20047;-68
2023/01/11 03:07:07;;;;;;;0.63;0.52;;;;;;;8.81;100.00;99859.72;5073295;28;20051;-69
2023/01/11 03:09:42;;;;;;;0.70;0.70;;;;;;;8.87;100.00;99862.88;5064394;28;20040;-69
2023/01/11 03:12:50;;;;;;;0.90;0.80;;;;;;;8.94;100.00;99871.03;5061353;28;20549;-69
2023/01/11 03:15:16;;;;;;;4.72;1.02;;;;;;;9.03;100.00;99871.53;5062776;28;20511;-68
2023/01/11 03:18:00;;;;;;;1.05;0.80;;;;;;;9.15;100.00;99876.69;5065631;28;20119;-68
2023/01/11 03:20:37;;;;;;;0.63;0.63;;;;;;;9.00;100.00;99864.97;5065411;28;20481;-68
2023/01/11 03:23:20;;;;;;;3.10;1.13;;;;;;;9.04;100.00;99873.06;5062562;28;20041;-68
2023/01/11 03:25:59;;;;;;;3.88;0.57;;;;;;;9.04;100.00;99860.41;5063115;28;20032;-67
2023/01/11 03:28:30;;;;;;;0.88;0.73;;;;;;;9.04;100.00;99863.09;5071639;28;20040;-68
2023/01/11 03:31:01;;;;;;;0.82;0.70;;;;;;;8.92;100.00;99868.69;5051525;28;20043;-68
2023/01/11 03:33:45;;;;;;;0.57;0.57;;;;;;;9.01;100.00;99866.53;5067385;28;20093;-68
2023/01/11 03:36:21;;;;;;;0.90;0.77;;;;;;;8.96;100.00;99864.16;5080826;28;20178;-68
2023/01/11 03:38:54;;;;;;;0.50;0.50;;;;;;;9.13;100.00;99867.44;5071351;28;20044;-68
2023/01/11 03:41:32;;;;;;;0.88;0.82;;;;;;;9.19;100.00;99855.25;5066336;28;20698;-68
2023/01/11 03:44:01;;;;;;;0.60;0.60;;;;;;;9.15;100.00;99844.47;5070025;28;20106;-68
2023/01/11 03:46:30;;;;;;;0.80;0.70;;;;;;;9.03;100.00;99858.09;5063799;28;20033;-68
2023/01/11 03:49:04;;;;;;;1.35;1.00;;;;;;;9.13;100.00;99859.38;5069508;28;20072;-69
2023/01/11 03:51:34;;;;;;;0.70;0.68;;;;;;;9.33;100.00;99850.81;5063748;28;20031;-68
2023/01/11 03:54:05;;;;;;;0.52;0.50;;;;;;;9.36;100.00;99844.72;5071407;28;20086;-68
2023/01/11 03:56:50;;;;;;;0.65;0.65;;;;;;;9.25;100.00;99853.78;5071274;28;20063;-68
2023/01/11 03:59:16;;;;;;;1.15;0.70;;;;;;;9.29;100.00;99841.16;5067307;28;20067;-68
2023/01/11 04:01:42;;;;;;;1.38;0.65;;;;;;;9.21;100.00;99829.56;5071328;28;20028;-68
2023/01/11 04:04:08;;;;;;;0.40;0.40;;;;;;;9.25;100.00;99824.22;5071762;28;20442;-68
2023/01/11 04:06:36;;;;;;;1.92;0.93;;;;;;;9.23;100.00;99827.28;5069986;28;20119;-68
2023/01/11 04:09:02;;;;;;;0.47;0.45;;;;;;;9.34;100.00;99812.06;5064285;28;20036;-69
2023/01/11 04:11:28;;;;;;;0.70;0.52;;;;;;;9.29;100.00;99827.75;5068002;28;20040;-68
2023/01/11 04:13:53;;;;;;;0.47;0.47;;;;;;;9.43;100.00;99838.63;5070740;28;20037;-68
2023/01/11 04:16:19;;;;;;;0.50;0.50;;;;;;;9.56;100.00;99815.75;5064648;28;20036;-68
2023/01/11 04:18:44;;;;;;;0.68;0.50;;;;;;;9.44;100.00;99816.00;5064626;28;20032;-68
2023/01/11 04:21:09;;;;;;;0.68;0.60;;;;;;;9.43;100.00;99819.81;5053273;28;20017;-68
2023/01/11 04:23:35;;;;;;;0.50;0.50;;;;;;;9.41;100.00;99811.34;5063106;28;20031;-68
2023/01/11 04:26:01;;;;;;;0.50;0.50;;;;;;;9.46;100.00;99801.06;5065442;28;20425;-68
2023/01/11 04:28:26;;;;;;;0.40;0.40;;;;;;;9.62;100.00;99795.47;5053174;28;20032;-68
2023/01/11 04:30:52;;;;;;;0.70;0.60;;;;;;;9.70;100.00;99802.44;5071343;28;20127;-69
2023/01/11 04:33:18;;;;;;;0.30;0.30;;;;;;;9.76;100.00;99803.66;5068235;28;20065;-68
2023/01/11 04:35:44;;;;;;;0.65;0.65;;;;;;;9.65;100.00;99803.56;5071705;28;20019;-68
2023/01/11 04:38:09;;;;;;;0.45;0.45;;;;;;;9.77;100.00;99800.63;5072730;28;20048;-68
2023/01/11 04:40:34;;;;;;;0.38;0.38;;;;;;;9.83;100.00;99804.50;5070656;28;20052;-68
2023/01/11 04:43:01;;;;;;;1.08;0.70;;;;;;;9.86;100.00;99809.16;5065805;28;20054;-69
2023/01/11 04:45:29;;;;;;;0.40;0.40;;;;;;;9.86;100.00;99803.00;5068077;28;20745;-68
2023/01/11 04:47:56;;;;;;;0.40;0.40;;;;;;;9.83;100.00;99798.38;5066395;22;20037;-69
2023/01/11 04:50:23;;;;;;;0.63;0.60;;;;;;;9.96;100.00;99805.78;5037347;28;20083;-67
2023/01/11 04:52:49;;;;;;;0.47;0.47;;;;;;;9.87;100.00;99794.53;5038821;28;20043;-70
2023/01/11 04:55:14;;;;;;;0.60;0.60;;;;;;;9.81;100.00;99796.03;5027031;28;20520;-67
2023/01/11 04:57:40;;;;;;;0.60;0.60;;;;;;;10.02;100.00;99790.09;5036109;28;20029;-69
2023/01/11 05:00:09;;;;;;;0.98;0.57;;;;;;;9.95;100.00;99795.38;5045509;28;20036;-69
2023/01/11 05:02:36;;;;;;;0.82;0.70;;;;;;;9.87;100.00;99788.41;5043758;28;20083;-68
2023/01/11 05:05:03;;;;;;;0.60;0.60;;;;;;;9.95;100.00;99793.47;5042176;28;20021;-68
2023/01/11 05:07:28;;;;;;;0.40;0.40;;;;;;;10.01;100.00;99799.28;5018697;28;20029;-69
2023/01/11 05:09:54;;;;;;;0.60;0.60;;;;;;;9.97;100.00;99790.41;5048824;28;20543;-69
2023/01/11 05:12:19;;;;;;;0.52;0.52;;;;;;;10.04;100.00;99793.16;5013693;28;20017;-69
2023/01/11 05:14:44;;;;;;;0.40;0.40;;;;;;;10.15;100.00;99791.34;5048089;28;20040;-70
2023/01/11 05:17:14;;;;;;;1.23;0.55;;;;;;;10.05;100.00;99800.09;5026281;28;20036;-69
2023/01/11 05:19:40;;;;;;;0.45;0.45;;;;;;;10.03;100.00;99792.38;5044192;28;20537;-69
2023/01/11 05:22:05;;;;;;;0.68;0.68;;;;;;;9.94;100.00;99799.22;5043069;28;20148;-69
2023/01/11 05:24:31;;;;;;;0.40;0.30;;;;;;;9.86;100.00;99803.78;5050820;28;20033;-69
2023/01/11 05:27:19;;;;;;;1.20;0.80;;;;;;;9.93;100.00;99797.66;5043790;28;20094;-70
2023/01/11 05:29:44;;;;;;;0.70;0.60;;;;;;;10.01;100.00;99807.34;4986480;28;20042;-70
2023/01/11 05:32:11;;;;;;;0.60;0.60;;;;;;;10.06;100.00;99808.94;4988875;28;20041;-70
2023/01/11 05:34:36;;;;;;;0.60;0.60;;;;;;;10.14;100.00;99797.13;4985105;28;20526;-69
2023/01/11 05:37:02;;;;;;;0.50;0.50;;;;;;;10.10;100.00;99797.09;4989357;28;20098;-69
2023/01/11 05:39:27;;;;;;;1.10;0.60;;;;;;;10.07;100.00;99792.41;4988525;28;20030;-71
2023/01/11 05:41:52;;;;;;;0.57;0.57;;;;;;;10.21;100.00;99794.47;4967567;28;20133;-70
2023/01/11 05:47:03;;;;;;;0.85;0.40;;;;;;;10.21;100.00;99800.63;4987272;28;20057;-69
2023/01/11 05:49:28;;;;;;;0.22;0.22;;;;;;;10.33;100.00;99792.28;4984483;28;20042;-68
2023/01/11 05:51:54;;;;;;;1.58;0.50;;;;;;;10.30;100.00;99795.69;4981418;28;20034;-70
2023/01/11 05:54:19;;;;;;;0.28;0.28;;;;;;;10.47;100.00;99799.69;4985910;28;20089;-70
2023/01/11 05:56:45;;;;;;;0.40;0.30;;;;;;;10.28;100.00;99794.53;4985332;28;20090;-69
2023/01/11 05:59:11;;;;;;;0.85;0.50;;;;;;;10.25;100.00;99796.06;4986349;28;20732;-70
2023/01/11 06:01:36;;;;;;;0.40;0.35;;;;;;;10.29;100.00;99791.47;4977744;28;20113;-68
2023/01/11 06:04:02;;;;;;;0.63;0.35;;;;;;;10.40;100.00;99795.00;4962364;28;20125;-70
2023/01/11 06:06:28;;;;;;;3.40;0.52;;;;;;;10.39;100.00;99798.84;5003116;28;20124;-69
2023/01/11 06:08:53;;;;;;;0.40;0.40;;;;;;;10.33;100.00;99803.03;5045567;28;20033;-70
2023/01/11 06:11:19;;;;;;;1.00;0.57;;;;;;;10.04;100.00;99798.56;5018587;28;20033;-69
2023/01/11 06:13:44;;;;;;;0.52;0.40;;;;;;;10.12;100.00;99789.44;5038642;28;20126;-67
2023/01/11 06:16:13;;;;;;;0.30;0.30;;;;;;;10.10;100.00;99802.47;5043564;28;20041;-69
2023/01/11 06:18:46;;;;;;;0.38;0.38;;;;;;;10.15;100.00;99801.34;5037571;28;20044;-67
2023/01/11 06:21:12;;;;;;;0.32;0.32;;;;;;;10.22;100.00;99806.78;5036067;28;20060;-68
2023/01/11 06:23:41;;;;;;;0.50;0.50;;;;;;;10.38;100.00;99808.06;5007718;28;20041;-69
2023/01/11 06:26:10;;;;;;;0.50;0.50;;;;;;;10.37;100.00;99795.75;5036388;28;20592;-71
2023/01/11 06:28:36;;;;;;;0.30;0.30;;;;;;;10.40;100.00;99800.38;5017243;28;20029;-72
2023/01/11 06:31:02;;;;;;;0.40;0.40;;;;;;;10.41;100.00;99804.63;5040249;28;20057;-67
2023/01/11 06:33:28;;;;;;;0.55;0.38;;;;;;;10.47;100.00;99797.72;5035483;28;20040;-68
2023/01/11 06:35:55;;;;;;;0.43;0.40;;;;;;;10.43;100.00;99796.94;5037357;28;20029;-68
2023/01/11 06:38:22;;;;;;;0.35;0.35;;;;;;;10.50;100.00;99798.91;5044872;28;20082;-70
2023/01/11 06:41:07;;;;;;;0.30;0.30;;;;;;;10.40;100.00;99783.47;5039913;28;20095;-68
2023/01/11 06:43:33;;;;;;;0.40;0.40;;;;;;;10.37;100.00;99795.00;5031325;28;20532;-72
2023/01/11 06:45:59;;;;;;;0.55;0.45;;;;;;;10.33;100.00;99789.59;5031331;28;20028;-70
2023/01/11 06:48:25;;;;;;;0.30;0.30;;;;;;;10.30;100.00;99793.00;5044847;28;20065;-68
2023/01/11 06:50:53;;;;;;;0.28;0.28;;;;;;;10.42;100.00;99800.00;5024129;28;20555;-67
2023/01/11 06:53:18;;;;;;;0.40;0.40;;;;;;;10.48;100.00;99790.44;5043220;28;20025;-69
2023/01/11 06:55:44;;;;;;;0.30;0.30;;;;;;;10.51;100.00;99801.22;5011715;28;20052;-69
2023/01/11 06:58:09;;;;;;;0.47;0.47;;;;;;;10.57;100.00;99804.31;5033703;28;20043;-69
2023/01/11 07:00:35;;;;;;;0.63;0.60;;;;;;;10.68;100.00;99808.63;5030961;28;20051;-70
2023/01/11 07:03:03;;;;;;;0.35;0.35;;;;;;;10.66;100.00;99819.03;5017695;28;20032;-69
2023/01/11 07:05:30;;;;;;;0.55;0.55;;;;;;;10.51;100.00;99812.00;5033290;28;20584;-70
2023/01/11 07:07:55;;;;;;;0.40;0.40;;;;;;;10.60;100.00;99812.44;5039686;28;20013;-69
2023/01/11 07:10:21;;;;;;;0.45;0.45;;;;;;;10.68;100.00;99815.97;5024369;28;20037;-67
2023/01/11 07:12:46;;;;;;;0.47;0.47;;;;;;;10.71;100.00;99823.28;5044650;28;20043;-68
2023/01/11 07:15:13;;;;;;;0.60;0.55;;;;;;;10.82;100.00;99837.56;5042551;28;20032;-73
2023/01/11 07:17:38;;;;;;;1.55;0.68;;;;;;;10.79;100.00;99833.72;5047713;28;20083;-69
2023/01/11 07:20:05;;;;;;;0.52;0.52;;;;;;;10.74;100.00;99825.97;5030174;28;20033;-68
2023/01/11 07:22:34;;;;;;;0.57;0.50;;;;;;;10.69;100.00;99833.66;5028706;28;20036;-69
2023/01/11 07:24:59;;;;;;;1.13;0.55;;;;;;;10.78;100.00;99818.69;5026379;28;20063;-69
2023/01/11 07:27:25;;;;;;;0.93;0.57;;;;;;;10.79;100.00;99831.03;5024829;28;20041;-68
2023/01/11 07:29:52;;;;;;;1.13;0.50;;;;;;;10.86;100.00;99843.75;5046581;28;20106;-68
2023/01/11 07:32:18;;;;;;;4.97;0.60;;;;;;;10.81;100.00;99841.41;5042820;28;20551;-68
2023/01/11 07:34:43;;;;;;;0.50;0.50;;;;;;;10.77;100.00;99846.78;5030815;28;20057;-68
2023/01/11 07:37:09;;;;;;;0.80;0.70;;;;;;;10.90;100.00;99839.16;5046605;28;20456;-68
2023/01/11 07:39:35;;;;;;;1.10;0.65;;;;;;;10.82;100.00;99837.56;5044933;28;20048;-68
2023/01/11 07:44:46;;;;;;;0.80;0.70;;;;;;;10.93;100.00;99848.41;5037598;28;20033;-71
2023/01/11 07:47:11;;;;;;;0.57;0.50;;;;;;;10.99;100.00;99852.31;5032016;28;20027;-69
2023/01/11 07:49:37;;;;;;;0.52;0.50;;;;;;;10.95;100.00;99851.50;5044900;28;20112;-68
2023/01/11 07:52:02;;;;;;;0.52;0.52;;;;;;;10.97;100.00;99855.38;5045015;28;20059;-70
2023/01/11 07:54:28;;;;;;;0.68;0.68;;;;;;;10.87;100.00;99846.09;5040975;28;20028;-69
2023/01/11 07:56:55;;;;;;;1.70;1.05;;;;;;;11.02;100.00;99852.31;5041758;28;20032;-68
2023/01/11 07:59:21;;;;;;;0.90;0.90;;;;;;;11.05;100.00;99848.88;5015679;28;20972;-68
2023/01/11 08:01:46;;;;;;;0.45;0.45;;;;;;;11.07;100.00;99854.63;5028174;28;20020;-68
2023/01/11 08:04:13;;;;;;;0.90;0.70;;;;;;;11.11;100.00;99860.06;5045085;28;20044;-71
2023/01/11 08:06:39;;;;;;;0.43;0.43;;;;;;;11.16;100.00;99857.78;5047312;28;20124;-69
2023/01/11 08:09:05;;;;;;;1.10;0.98;;;;;;;11.26;100.00;99856.28;5037024;28;20040;-72
2023/01/11 08:16:59;;;;;;;0.60;0.60;;;;;;;11.06;100.00;99853.09;5039226;28;20033;-67
2023/01/11 08:19:25;;;;;;;0.52;0.52;;;;;;;11.13;100.00;99855.81;5043923;28;20028;-68
2023/01/11 08:21:51;;;;;;;0.95;0.80;;;;;;;11.27;100.00;99858.59;5040974;28;20163;-70
2023/01/11 08:24:16;;;;;;;0.50;0.50;;;;;;;11.32;100.00;99863.63;5045121;28;20041;-67
2023/01/11 08:26:42;;;;;;;0.98;0.68;;;;;;;11.36;100.00;99869.03;5048540;28;20625;-67
2023/01/11 08:29:08;;;;;;;1.23;0.80;;;;;;;11.36;100.00;99879.81;5045560;28;20146;-68
2023/01/11 08:31:33;;;;;;;1.85;1.40;;;;;;;11.32;100.00;99882.50;5044316;28;20036;-69
2023/01/11 08:33:58;;;;;;;1.00;0.80;;;;;;;11.26;100.00;99872.44;5041190;28;20045;-70
2023/01/11 08:36:26;;;;;;;1.23;1.13;;;;;;;11.42;100.00;99886.41;5045988;28;20033;-67
2023/01/11 08:38:55;;;;;;;0.63;0.60;;;;;;;11.34;100.00;99876.72;5043103;28;20021;-69
2023/01/11 08:41:21;;;;;;;0.82;0.82;;;;;;;11.42;100.00;99884.44;5037050;28;20033;-69
2023/01/11 08:43:48;;;;;;;0.43;0.43;;;;;;;11.46;100.00;99884.47;5039648;28;20460;-68
2023/01/11 08:46:14;;;;;;;0.82;0.82;;;;;;;11.44;100.00;99882.16;5030635;28;20029;-70
2023/01/11 08:48:40;;;;;;;1.35;1.00;;;;;;;11.47;100.00;99892.19;5045452;28;20031;-70
2023/01/11 08:51:05;;;;;;;0.93;0.70;;;;;;;11.52;100.00;99893.72;5049647;28;20037;-67
2023/01/11 08:53:31;;;;;;;1.10;1.00;;;;;;;11.52;100.00;99897.22;5050775;28;20481;-67
2023/01/11 08:55:56;;;;;;;1.75;1.10;;;;;;;11.57;100.00;99891.47;5046704;28;20079;-68
2023/01/11 08:58:22;;;;;;;0.60;0.60;;;;;;;11.60;100.00;99898.00;5047973;28;20037;-70
2023/01/11 09:00:47;;;;;;;0.98;0.88;;;;;;;11.61;100.00;99894.19;5046655;28;20474;-69
2023/01/11 09:03:13;;;;;;;0.80;0.80;;;;;;;11.61;100.00;99900.31;5032827;28;20025;-68
2023/01/11 09:05:40;;;;;;;1.40;1.15;;;;;;;11.61;100.00;99904.97;5048939;28;20040;-67
2023/01/11 09:08:07;;;;;;;1.02;1.00;;;;;;;11.66;100.00;99904.63;5050828;28;20040;-68
2023/01/11 09:10:32;;;;;;;1.25;1.02;;;;;;;11.68;100.00;99910.41;5045663;28;20027;-67
2023/01/11 09:12:58;;;;;;;1.10;1.00;;;;;;;11.72;100.00;99920.06;5049480;28;20117;-72
2023/01/11 09:15:24;;;;;;;0.77;0.57;;;;;;;11.72;100.00;99927.38;5032505;28;20219;-68
2023/01/11 09:17:50;;;;;;;3.30;1.25;;;;;;;11.78;100.00;99942.81;5049315;28;20032;-68
2023/01/11 09:20:17;;;;;;;1.33;0.80;;;;;;;11.85;100.00;99942.06;5044011;28;20031;-69
2023/01/11 09:22:46;;;;;;;1.45;1.20;;;;;;;11.85;100.00;99933.97;5045367;28;20375;-68
2023/01/11 09:25:12;;;;;;;1.63;1.00;;;;;;;11.88;100.00;99941.31;5048959;28;20029;-72
2023/01/11 09:27:42;;;;;;;2.00;1.27;;;;;;;11.90;100.00;99949.78;5042719;28;20043;-70
2023/01/11 09:30:08;;;;;;;1.35;1.00;;;;;;;11.88;100.00;99944.00;5014605;28;20036;-69
2023/01/11 09:32:34;;;;;;;1.60;0.85;;;;;;;11.88;100.00;99949.41;5045418;28;20114;-68
2023/01/11 09:35:00;;;;;;;1.50;1.10;;;;;;;11.86;100.00;99943.63;5045411;28;21433;-70
2023/01/11 09:37:25;;;;;;;1.63;1.27;;;;;;;11.88;100.00;99935.91;5034219;28;20644;-68
2023/01/11 09:39:51;;;;;;;2.08;1.05;;;;;;;11.93;100.00;99943.63;5040645;28;20045;-67
2023/01/11 09:42:16;;;;;;;1.83;1.13;;;;;;;11.96;100.00;99934.78;5047108;28;20435;-69
2023/01/11 09:44:56;;;;;;;1.05;0.95;;;;;;;11.95;100.00;99935.94;5037087;28;20076;-70
2023/01/11 09:47:37;;;;;;;1.95;1.10;;;;;;;11.99;100.00;99936.72;5046709;28;20047;-69
2023/01/11 09:50:10;;;;;;;0.80;0.80;;;;;;;11.99;100.00;99946.72;5047849;28;20033;-69
2023/01/11 09:52:41;;;;;;;0.80;0.80;;;;;;;11.98;100.00;99945.94;5021391;28;20044;-68
2023/01/11 09:55:23;;;;;;;2.03;0.80;;;;;;;12.02;100.00;99935.19;5040994;28;20029;-69
2023/01/11 09:58:07;;;;;;;1.25;0.63;;;;;;;12.06;100.00;99936.72;5046978;28;20036;-68
2023/01/11 10:00:55;;;;;;;1.35;0.77;;;;;;;12.07;100.00;99932.88;5016807;28;20041;-67
2023/01/11 10:04:36;;;;;;;0.70;0.70;;;;;;;12.08;100.00;99944.47;5040208;28;20086;-69
2023/01/11 10:07:23;;;;;;;0.73;0.63;;;;;;;12.17;100.00;99942.16;4901236;28;20048;-70
2023/01/11 10:09:59;;;;;;;1.85;0.90;;;;;;;12.09;100.00;99938.66;5042856;28;20647;-69
2023/01/11 10:12:34;;;;;;;0.98;0.65;;;;;;;12.09;100.00;99946.75;5047627;28;20094;-71
2023/01/11 10:15:27;;;;;;;0.77;0.63;;;;;;;12.08;100.00;99953.31;5044485;28;20054;-68
2023/01/11 10:18:08;;;;;;;1.35;0.93;;;;;;;12.13;100.00;99961.03;5048209;28;20039;-68
2023/01/11 10:20:42;;;;;;;0.95;0.88;;;;;;;12.10;100.00;99958.34;5030075;28;20036;-68
2023/01/11 10:24:01;;;;;;;1.45;1.10;;;;;;;12.17;100.00;99953.72;5027775;28;20032;-69
2023/01/11 10:26:34;;;;;;;1.35;1.00;;;;;;;12.16;100.00;99957.56;5042804;28;20033;-67
2023/01/11 10:37:53;;;;;;;2.03;1.05;;;;;;;12.09;100.00;99971.06;5040859;28;20048;-67
2023/01/11 10:43:02;;;;;;;0.65;0.55;;;;;;;12.12;100.00;99969.50;5038791;28;20040;-68
2023/01/11 10:45:37;;;;;;;3.03;1.25;;;;;;;12.05;100.00;99967.56;5041491;28;20119;-67
2023/01/11 10:48:11;;;;;;;2.17;1.55;;;;;;;12.06;100.00;99977.19;5040650;28;20446;-68
2023/01/11 10:51:28;;;;;;;1.90;1.10;;;;;;;12.03;100.00;99974.50;5030215;28;20504;-68
2023/01/11 10:53:58;;;;;;;0.75;0.70;;;;;;;12.04;100.00;99968.72;5036189;28;20049;-68
2023/01/11 10:56:48;;;;;;;1.45;0.88;;;;;;;12.10;100.00;99967.19;5040644;28;20036;-69
2023/01/11 10:59:38;;;;;;;2.72;1.20;;;;;;;12.07;100.00;99964.47;4992533;28;20088;-68
2023/01/11 11:02:25;;;;;;;2.10;1.20;;;;;;;12.10;100.00;99958.34;5041882;28;20040;-68
2023/01/11 11:04:59;;;;;;;2.13;1.00;;;;;;;12.07;100.00;99970.66;5038744;28;20037;-67
2023/01/11 11:07:33;;;;;;;1.05;0.90;;;;;;;12.14;100.00;99951.78;5038064;28;20483;-67
2023/01/11 11:10:11;;;;;;;1.23;0.80;;;;;;;12.08;100.00;99950.59;5042682;28;20660;-72
2023/01/11 11:12:45;;;;;;;2.70;1.27;;;;;;;12.12;100.00;99950.59;5041525;28;20044;-69
2023/01/11 11:15:14;;;;;;;0.63;0.63;;;;;;;12.17;100.00;99956.44;5021766;28;20029;-67
2023/01/11 11:17:48;;;;;;;1.75;0.80;;;;;;;12.15;100.00;99950.63;5045199;28;20052;-69
2023/01/11 11:20:17;;;;;;;5.07;1.13;;;;;;;12.10;100.00;99966.44;5044856;28;20025;-67
2023/01/11 11:22:43;;;;;;;0.88;0.60;;;;;;;12.12;100.00;99950.59;5028734;28;20033;-72
2023/01/11 11:25:40;;;;;;;4.68;0.93;;;;;;;12.21;100.00;99951.03;5040359;28;20024;-67
2023/01/11 11:28:26;;;;;;;1.08;0.75;;;;;;;12.02;100.00;99956.78;5013423;28;20045;-69
2023/01/11 11:30:56;;;;;;;1.10;0.80;;;;;;;12.07;100.00;99954.47;5023839;28;20037;-68
2023/01/11 11:33:29;;;;;;;1.13;0.80;;;;;;;12.12;100.00;99948.69;5027997;28;20128;-66
2023/01/11 11:35:57;;;;;;;3.00;1.20;;;;;;;12.14;100.00;99951.00;5052041;28;20036;-67
2023/01/11 11:38:37;;;;;;;3.78;1.88;;;;;;;12.11;100.00;99952.56;5033641;28;20110;-67
2023/01/11 11:41:09;;;;;;;5.78;2.13;;;;;;;12.15;100.00;99964.13;5029530;28;20436;-69
2023/01/11 11:43:39;;;;;;;3.40;1.95;;;;;;;12.15;100.00;99963.34;5045987;28;20037;-67
2023/01/11 11:46:21;;;;;;;4.05;1.75;;;;;;;12.17;100.00;99959.13;5051792;28;20116;-68
2023/01/11 11:49:10;;;;;;;6.38;2.17;;;;;;;12.15;100.00;99960.66;5041272;28;20395;-66
2023/01/11 11:51:38;;;;;;;3.05;1.42;;;;;;;12.00;100.00;99962.53;5047103;28;20496;-67
2023/01/11 11:54:04;;;;;;;5.07;1.73;;;;;;;12.08;100.00;99958.69;5048379;28;20031;-67
2023/01/11 11:56:33;;;;;;;4.93;1.55;;;;;;;12.08;100.00;99963.34;5040788;28;20477;-69
2023/01/11 11:59:05;;;;;;;3.60;1.90;;;;;;;12.12;100.00;99966.81;5025694;28;20053;-67
2023/01/11 12:01:42;;;;;;;2.03;1.55;;;;;;;12.06;100.00;99969.09;5034637;28;20061;-69
2023/01/11 12:04:37;;;;;;;4.80;1.92;;;;;;;12.03;100.00;99966.41;5041309;28;20037;-69
2023/01/11 12:07:15;;;;;;;2.85;1.55;;;;;;;12.03;100.00;99969.09;5044081;28;20040;-69
2023/01/11 12:09:46;;;;;;;2.83;1.55;;;;;;;12.06;100.00;99963.69;5036715;28;20400;-69
2023/01/11 12:12:20;;;;;;;1.38;1.17;;;;;;;12.04;100.00;99960.63;5039389;28;20056;-70
2023/01/11 12:15:18;;;;;;;4.07;1.60;;;;;;;12.14;100.00;99975.28;5038140;28;20037;-69
2023/01/11 12:17:44;;;;;;;1.85;1.17;;;;;;;12.11;100.00;99966.06;5019223;28;20120;-67
2023/01/11 12:20:32;;;;;;;2.50;1.20;;;;;;;12.05;100.00;99967.56;5040890;28;20028;-69
2023/01/11 12:23:11;;;;;;;1.52;1.00;;;;;;;12.06;100.00;99971.81;5040620;28;20063;-69